Flight Track Log - Related Links

Times and Time Zones

All times are in EDT time to prevent confusion due to time zone crossing. See the EGF3214 flight status page for this flight to view local times or setup timezone preferences in your user account.

Time Position Orientation Groundspeed Altitude Reporting Facility
EDT Latitude Longitude Course Direction KTS MPH feet Rate Location/Type
Mon 04:52:48 PM 38.1167 -85.7167 236° Southwest 183 211 2,300  Level Louisville TRACON
Mon 04:53:37 PM 38.0889 -85.7075 165° South 212 244 4,000 1,892 Climbing Indianapolis Center
Mon 04:54:00 PM 38.0667 -85.9107 270° West  Level FlightAware Approximate
Mon 04:54:39 PM 38.0656 -85.7781 247° West 224 258 5,800  Level Indianapolis Center
Mon 04:55:00 PM 38.0236 -86.0088 234° Southwest  Level FlightAware Approximate
Mon 04:55:41 PM 38.0719 -85.8703 275° West 250 288 7,800  Level Indianapolis Center
Mon 04:56:00 PM 37.9690 -86.1016 233° Southwest  Level FlightAware Approximate
Mon 04:56:43 PM 38.0689 -85.9594 268° West 259 298 10,200  Level Indianapolis Center
Mon 04:57:00 PM 37.9138 -86.1937 233° Southwest  Level FlightAware Approximate
Mon 04:57:45 PM 38.0133 -86.0517 233° Southwest 269 310 11,600  Level Indianapolis Center
Mon 04:58:00 PM 37.8586 -86.2951 236° Southwest  Level FlightAware Approximate
Mon 04:58:47 PM 37.9603 -86.1381 232° Southwest 299 344 12,600  Level Indianapolis Center
Mon 04:59:49 PM 37.9064 -86.2328 234° Southwest 322 371 13,700 1,016 Climbing Indianapolis Center
Mon 05:00:51 PM 37.8542 -86.3347 237° Southwest 337 388 14,700 1,016 Climbing Indianapolis Center
Mon 05:01:53 PM 37.7967 -86.4528 238° Southwest 348 400 15,800 968 Climbing Indianapolis Center
Mon 05:02:55 PM 37.7483 -86.5478 237° Southwest 353 406 16,700 919 Climbing Indianapolis Center
Mon 05:03:57 PM 37.6953 -86.6547 238° Southwest 354 407 17,700 1,008 Climbing Indianapolis Center
Mon 05:05:00 PM 37.6308 -86.7831 238° Southwest 355 409 18,800 1,008 Climbing Indianapolis Center
Mon 05:06:02 PM 37.5764 -86.8897 237° Southwest 356 410 19,800 968 Climbing Indianapolis Center
Mon 05:07:04 PM 37.5275 -86.9869 238° Southwest 356 410 20,800 1,016 Climbing Indianapolis Center
Mon 05:08:06 PM 37.4633 -87.1125 237° Southwest 358 412 21,900 1,016 Climbing Indianapolis Center
Mon 05:09:08 PM 37.4075 -87.2192 237° Southwest 359 413 22,900 968 Climbing Indianapolis Center
Mon 05:10:10 PM 37.3539 -87.3269 238° Southwest 359 413 23,900 968 Climbing Indianapolis Center
Mon 05:11:12 PM 37.2994 -87.4322 237° Southwest 359 413 24,900 968 Climbing Indianapolis Center
Mon 05:12:14 PM 37.2450 -87.5375 237° Southwest 359 413 25,900 968 Climbing Indianapolis Center
Mon 05:13:16 PM 37.1911 -87.6414 237° Southwest 357 411 26,900 981 Climbing Indianapolis Center
Mon 05:13:58 PM 37.1544 -87.7108 236° Southwest 358 412 27,600 1,038 Climbing Memphis Center
Mon 05:15:00 PM 37.0925 -87.8311 237° Southwest 353 406 28,700 1,016 Climbing Memphis Center
Mon 05:16:02 PM 37.0389 -87.9339 237° Southwest 352 405 29,700 968 Climbing Memphis Center
Mon 05:17:04 PM 36.9853 -88.0356 237° Southwest 351 404 30,700 1,016 Climbing Memphis Center
Mon 05:18:06 PM 36.9289 -88.1433 237° Southwest 348 400 31,800 1,016 Climbing Memphis Center
Mon 05:19:08 PM 36.8764 -88.2444 237° Southwest 348 400 32,800 968 Climbing Memphis Center
Mon 05:20:10 PM 36.8219 -88.3453 236° Southwest 349 402 33,800 960 Climbing Memphis Center
Mon 05:21:13 PM 36.7694 -88.4447 237° Southwest 348 400 34,800 581 Climbing Memphis Center
Mon 05:22:14 PM 36.7175 -88.5439 237° Southwest 344 396 35,000 98 Climbing Memphis Center
Mon 05:23:16 PM 36.6622 -88.6486 237° Southwest 356 410 35,000 97 Level Memphis Center
Mon 05:24:18 PM 36.5917 -88.7794 236° Southwest 372 428 35,200 480 Climbing Memphis Center
Mon 05:25:21 PM 36.5325 -88.8903 236° Southwest 381 438 36,000 384 Climbing Memphis Center
Mon 05:26:23 PM 36.4733 -88.9992 236° Southwest 380 437 36,000  Level Memphis Center
Mon 05:27:25 PM 36.4131 -89.1103 236° Southwest 382 440 36,000  Level Memphis Center
Mon 05:28:27 PM 36.3514 -89.2250 236° Southwest 385 443 36,000  Level Memphis Center
Mon 05:29:29 PM 36.2958 -89.3300 237° Southwest 379 436 36,000  Level Memphis Center
Mon 05:30:31 PM 36.2389 -89.4306 235° Southwest 356 410 36,000  Level Memphis Center
Mon 05:31:33 PM 36.1847 -89.5311 236° Southwest 351 404 36,000  Level Memphis Center
Mon 05:32:35 PM 36.1281 -89.6350 236° Southwest 357 411 36,000  Level Memphis Center
Mon 05:33:37 PM 36.0583 -89.7614 236° Southwest 366 421 36,000  Level Memphis Center
Mon 05:34:39 PM 36.0003 -89.8675 236° Southwest 367 422 36,000  Level Memphis Center
Mon 05:35:41 PM 35.9411 -89.9733 235° Southwest 371 427 36,000  Level Memphis Center
Mon 05:36:43 PM 35.8831 -90.0786 236° Southwest 371 427 36,000  Level Memphis Center
Mon 05:37:45 PM 35.8267 -90.1800 236° Southwest 365 420 36,000  Level Memphis Center
Mon 05:38:48 PM 35.7708 -90.2794 235° Southwest 358 412 36,000  Level Memphis Center
Mon 05:39:50 PM 35.7036 -90.4000 236° Southwest 357 411 36,000  Level Memphis Center
Mon 05:40:52 PM 35.6519 -90.4903 235° Southwest 357 411 36,000  Level Memphis Center
Mon 05:41:54 PM 35.5944 -90.5928 235° Southwest 360 414 36,000  Level Memphis Center
Mon 05:42:56 PM 35.5256 -90.7153 235° Southwest 362 417 36,000  Level Memphis Center
Mon 05:43:58 PM 35.4669 -90.8186 235° Southwest 368 423 36,000  Level Memphis Center
Mon 05:45:00 PM 35.4086 -90.9219 235° Southwest 368 423 36,000  Level Memphis Center
Mon 05:46:01 PM 35.3508 -91.0203 234° Southwest 365 420 36,000  Level Memphis Center
Mon 05:47:03 PM 35.2883 -91.1319 236° Southwest 358 412 36,000  Level Memphis Center
Mon 05:48:05 PM 35.2317 -91.2319 235° Southwest 357 411 36,000  Level Memphis Center
Mon 05:49:07 PM 35.1736 -91.3322 235° Southwest 358 412 36,000  Level Memphis Center
Mon 05:50:09 PM 35.1158 -91.4322 235° Southwest 358 412 36,000  Level Memphis Center
Mon 05:51:11 PM 35.0578 -91.5331 235° Southwest 359 413 36,000  Level Memphis Center
Mon 05:53:15 PM 34.9283 -91.7542 235° Southwest 361 415 36,000  Level Memphis Center
Mon 05:54:17 PM 34.8694 -91.8544 234° Southwest 362 417 36,000  Level Memphis Center
Mon 05:55:19 PM 34.8114 -91.9533 234° Southwest 362 417 36,000  Level Memphis Center
Mon 05:56:20 PM 34.7553 -92.0494 235° Southwest 356 410 36,000  Level Memphis Center
Mon 05:57:22 PM 34.6967 -92.1497 235° Southwest 357 411 36,000  Level Memphis Center
Mon 05:58:24 PM 34.6564 -92.2575 246° West 355 409 36,000  Level Memphis Center
Mon 05:59:26 PM 34.6272 -92.3717 253° West 355 409 36,000  Level Memphis Center
Mon 06:00:28 PM 34.5922 -92.5089 253° West 355 409 36,000  Level Memphis Center
Mon 06:01:30 PM 34.5608 -92.6236 252° West 355 409 36,000  Level Memphis Center
Mon 06:02:32 PM 34.5322 -92.7364 253° West 355 409 36,000  Level Memphis Center
Mon 06:03:34 PM 34.5019 -92.8483 252° West 354 407 36,000  Level Memphis Center
Mon 06:04:36 PM 34.4722 -92.9594 252° West 350 403 36,000  Level Memphis Center
Mon 06:05:38 PM 34.4425 -93.0706 252° West 350 403 36,000  Level Memphis Center
Mon 06:06:40 PM 34.4117 -93.1792 251° West 345 397 36,000  Level Memphis Center
Mon 06:07:42 PM 34.3761 -93.3117 252° West 345 397 36,000  Level Memphis Center
Mon 06:08:44 PM 34.3458 -93.4233 252° West 345 397 36,000  Level Memphis Center
Mon 06:09:21 PM 34.3253 -93.4992 252° West 355 409 36,000  Level Fort Worth Center
Mon 06:10:23 PM 34.2936 -93.6158 252° West 362 417 36,000  Level Fort Worth Center
Mon 06:11:25 PM 34.2606 -93.7339 251° West 368 423 36,000  Level Fort Worth Center
Mon 06:12:27 PM 34.2264 -93.8578 252° West 367 422 36,000  Level Fort Worth Center
Mon 06:13:30 PM 34.1981 -93.9603 252° West 359 413 36,000  Level Fort Worth Center
Mon 06:14:32 PM 34.1675 -94.0686 251° West 348 400 36,000  Level Fort Worth Center
Mon 06:15:34 PM 34.1314 -94.1994 252° West 345 397 36,000 -339 Level Fort Worth Center
Mon 06:16:36 PM 34.1003 -94.3089 251° West 345 397 35,300 -816 Descending Fort Worth Center
Mon 06:17:39 PM 34.0675 -94.4244 251° West 357 411 34,300 -968 Descending Fort Worth Center
Mon 06:18:40 PM 34.0486 -94.5450 259° West 365 420 33,300 -976 Descending Fort Worth Center
Mon 06:19:42 PM 34.0328 -94.6614 261° West 360 414 32,300 -1,065 Descending Fort Worth Center
Mon 06:20:44 PM 33.9972 -94.8006 253° West 361 415 31,100 -1,065 Descending Fort Worth Center
Mon 06:21:46 PM 33.9589 -94.9197 249° West 375 432 30,100 -960 Descending Fort Worth Center
Mon 06:22:49 PM 33.9200 -95.0381 248° West 380 437 29,100 -864 Descending Fort Worth Center
Mon 06:23:51 PM 33.8772 -95.1561 246° West 382 440 28,300 -677 Descending Fort Worth Center
Mon 06:24:53 PM 33.8350 -95.2744 247° West 388 447 27,700 -629 Descending Fort Worth Center
Mon 06:25:55 PM 33.7758 -95.4242 245° Southwest 411 473 27,000 -629 Descending Fort Worth Center
Mon 06:26:57 PM 33.7294 -95.5475 246° West 410 472 26,400 -629 Descending Fort Worth Center
Mon 06:27:59 PM 33.6819 -95.6736 246° West 409 471 25,700 -919 Descending Fort Worth Center
Mon 06:29:01 PM 33.6344 -95.7964 245° Southwest 410 472 24,500 -2,081 Descending Fort Worth Center
Mon 06:30:03 PM 33.5836 -95.9253 245° Southwest 394 453 21,400 -2,976 Descending Fort Worth Center
Mon 06:31:06 PM 33.5375 -96.0447 245° Southwest 366 421 18,300 -2,832 Descending Fort Worth Center
Mon 06:32:08 PM 33.4956 -96.1531 245° Southwest 361 415 15,500 -2,613 Descending Fort Worth Center
Mon 06:33:10 PM 33.4511 -96.2633 244° Southwest 345 397 12,900 -2,129 Descending Fort Worth Center
Mon 06:34:12 PM 33.4128 -96.3628 245° Southwest 326 375 11,100 -1,016 Descending Fort Worth Center
Mon 06:35:14 PM 33.3661 -96.4417 235° Southwest 267 307 10,800 -919 Descending Fort Worth Center
Mon 06:36:16 PM 33.3125 -96.5017 223° Southwest 265 305 9,200 -1,597 Descending Fort Worth Center
Mon 06:37:18 PM 33.2675 -96.5767 234° Southwest 257 296 7,500 -1,452 Descending Fort Worth Center
Mon 06:38:20 PM 33.2378 -96.6519 245° Southwest 255 293 6,200 -1,113 Descending Fort Worth Center
Mon 06:39:22 PM 33.2081 -96.7294 245° Southwest 255 293 5,200 -576 Descending Fort Worth Center
Mon 06:40:25 PM 33.1800 -96.8117 248° West 252 290 5,000 -240 Descending Fort Worth Center
Mon 06:41:27 PM 33.1492 -96.8911 245° Southwest 251 289 4,700 -484 Descending Fort Worth Center
Mon 06:42:29 PM 33.1133 -96.9578 237° Southwest 243 280 4,000 -677 Descending Fort Worth Center
Mon 06:43:31 PM 33.0683 -97.0231 231° Southwest 239 275 3,300 -677 Descending Fort Worth Center
Mon 06:44:33 PM 33.0103 -97.0556 205° Southwest 232 267 2,600 -871 Descending Fort Worth Center
Mon 06:45:35 PM 32.9594 -97.0553 180° South 177 204 1,500 -919 Descending Fort Worth Center
Mon 06:46:37 PM 32.9194 -97.0550 180° South 138 159 700 -774 Descending Fort Worth Center

Login

Don't have an account? Register now (free) for customized features, flight alerts, and more!